Granite, Oklahoma
Current Conditions -  °F | °C
As of 6:55 AM on Thursday 23 Oct 2014 (Local Time) from KAXS Reporting Station
Haze Haze  
Wind Chill: 58°   Ceiling: 4300
Heat Index: 58°   Visibility: 1mi
Dew Point: 56°   Wind: 0mph
Humidity: 93%   Direction: NA
Pressure: 30.11"   Gusts: NA
Location:  34.96°N, 99.38°W
Report Text: KAXS 231155Z AUTO 00000KT 1SM BR BKN043 14/13 A3011 RMK AO2 70004 T01430132 10170 20143
Loading
Personal Weather Stations






























Interactive Weather Map
Tropical Storm Tracking
New forecast layout! Learn more

10-Day Weather Forecast

Advertisements
Track Severe Weather on mobile